sensor_id;sensor_type;location;lat;lon;timestamp;P1;durP1;ratioP1;P2;durP2;ratioP2
51238;SDS011;38154;47.548;18.828;2022-07-22T00:01:34;4.60;;;2.17;;
51238;SDS011;38154;47.548;18.828;2022-07-22T00:06:27;3.73;;;2.23;;
51238;SDS011;38154;47.548;18.828;2022-07-22T00:08:54;7.32;;;2.15;;
51238;SDS011;38154;47.548;18.828;2022-07-22T00:11:20;4.03;;;2.15;;
51238;SDS011;38154;47.548;18.828;2022-07-22T00:16:12;4.03;;;2.10;;
51238;SDS011;38154;47.548;18.828;2022-07-22T00:18:38;5.00;;;2.42;;
51238;SDS011;38154;47.548;18.828;2022-07-22T00:21:04;6.78;;;2.37;;
51238;SDS011;38154;47.548;18.828;2022-07-22T00:23:30;4.80;;;2.37;;
51238;SDS011;38154;47.548;18.828;2022-07-22T00:25:57;10.40;;;2.00;;
51238;SDS011;38154;47.548;18.828;2022-07-22T00:28:23;5.78;;;2.40;;
51238;SDS011;38154;47.548;18.828;2022-07-22T00:30:49;7.07;;;2.25;;
51238;SDS011;38154;47.548;18.828;2022-07-22T00:33:15;7.03;;;2.08;;
51238;SDS011;38154;47.548;18.828;2022-07-22T00:35:40;3.45;;;2.12;;
51238;SDS011;38154;47.548;18.828;2022-07-22T00:38:06;2.50;;;2.00;;
51238;SDS011;38154;47.548;18.828;2022-07-22T00:40:32;3.80;;;1.92;;
51238;SDS011;38154;47.548;18.828;2022-07-22T00:42:59;2.42;;;1.90;;
51238;SDS011;38154;47.548;18.828;2022-07-22T00:45:25;3.12;;;2.08;;
51238;SDS011;38154;47.548;18.828;2022-07-22T00:47:51;4.65;;;1.73;;
51238;SDS011;38154;47.548;18.828;2022-07-22T00:50:17;2.70;;;1.60;;
51238;SDS011;38154;47.548;18.828;2022-07-22T00:52:45;4.30;;;1.98;;
51238;SDS011;38154;47.548;18.828;2022-07-22T00:55:11;3.28;;;1.80;;
51238;SDS011;38154;47.548;18.828;2022-07-22T00:57:38;4.20;;;1.50;;
51238;SDS011;38154;47.548;18.828;2022-07-22T01:00:04;3.28;;;1.75;;
51238;SDS011;38154;47.548;18.828;2022-07-22T01:02:33;3.40;;;1.40;;
51238;SDS011;38154;47.548;18.828;2022-07-22T01:04:59;5.32;;;1.70;;
51238;SDS011;38154;47.548;18.828;2022-07-22T01:07:25;4.97;;;2.00;;
51238;SDS011;38154;47.548;18.828;2022-07-22T01:09:51;2.00;;;1.50;;
51238;SDS011;38154;47.548;18.828;2022-07-22T01:12:16;6.57;;;2.40;;
51238;SDS011;38154;47.548;18.828;2022-07-22T01:14:42;3.25;;;1.98;;
51238;SDS011;38154;47.548;18.828;2022-07-22T01:17:08;2.53;;;1.35;;
51238;SDS011;38154;47.548;18.828;2022-07-22T01:19:35;7.60;;;2.20;;
51238;SDS011;38154;47.548;18.828;2022-07-22T01:22:01;3.47;;;1.67;;
51238;SDS011;38154;47.548;18.828;2022-07-22T01:24:27;2.55;;;2.00;;
51238;SDS011;38154;47.548;18.828;2022-07-22T01:26:53;3.70;;;1.87;;
51238;SDS011;38154;47.548;18.828;2022-07-22T01:29:19;3.60;;;1.87;;
51238;SDS011;38154;47.548;18.828;2022-07-22T01:31:45;3.22;;;1.80;;
51238;SDS011;38154;47.548;18.828;2022-07-22T01:34:11;3.08;;;2.08;;
51238;SDS011;38154;47.548;18.828;2022-07-22T01:36:37;5.18;;;1.73;;
51238;SDS011;38154;47.548;18.828;2022-07-22T01:39:03;3.30;;;1.83;;
51238;SDS011;38154;47.548;18.828;2022-07-22T01:41:29;4.82;;;1.87;;
51238;SDS011;38154;47.548;18.828;2022-07-22T01:43:55;3.90;;;1.90;;
51238;SDS011;38154;47.548;18.828;2022-07-22T01:46:21;4.72;;;1.62;;
51238;SDS011;38154;47.548;18.828;2022-07-22T01:48:48;4.25;;;1.95;;
51238;SDS011;38154;47.548;18.828;2022-07-22T01:51:16;4.00;;;1.65;;
51238;SDS011;38154;47.548;18.828;2022-07-22T01:53:41;2.72;;;1.73;;
51238;SDS011;38154;47.548;18.828;2022-07-22T01:56:07;2.05;;;1.60;;
51238;SDS011;38154;47.548;18.828;2022-07-22T01:58:33;2.25;;;1.30;;
51238;SDS011;38154;47.548;18.828;2022-07-22T02:00:59;2.85;;;1.73;;
51238;SDS011;38154;47.548;18.828;2022-07-22T02:03:25;2.75;;;1.90;;
51238;SDS011;38154;47.548;18.828;2022-07-22T02:05:51;11.30;;;2.30;;
51238;SDS011;38154;47.548;18.828;2022-07-22T02:08:17;3.47;;;1.52;;
51238;SDS011;38154;47.548;18.828;2022-07-22T02:10:43;3.50;;;1.50;;
51238;SDS011;38154;47.548;18.828;2022-07-22T02:13:09;5.85;;;1.73;;
51238;SDS011;38154;47.548;18.828;2022-07-22T02:15:35;1.42;;;1.23;;
51238;SDS011;38154;47.548;18.828;2022-07-22T02:20:41;2.58;;;1.85;;
51238;SDS011;38154;47.548;18.828;2022-07-22T02:23:08;2.42;;;1.70;;
51238;SDS011;38154;47.548;18.828;2022-07-22T02:25:34;5.12;;;1.58;;
51238;SDS011;38154;47.548;18.828;2022-07-22T02:28:00;2.78;;;1.62;;
51238;SDS011;38154;47.548;18.828;2022-07-22T02:30:26;4.32;;;1.98;;
51238;SDS011;38154;47.548;18.828;2022-07-22T02:32:52;3.35;;;1.73;;
51238;SDS011;38154;47.548;18.828;2022-07-22T02:35:18;8.38;;;3.55;;
51238;SDS011;38154;47.548;18.828;2022-07-22T02:37:44;4.12;;;1.70;;
51238;SDS011;38154;47.548;18.828;2022-07-22T02:40:09;2.33;;;1.90;;
51238;SDS011;38154;47.548;18.828;2022-07-22T02:42:35;4.93;;;1.70;;
51238;SDS011;38154;47.548;18.828;2022-07-22T02:45:02;6.60;;;1.90;;
51238;SDS011;38154;47.548;18.828;2022-07-22T02:47:28;4.05;;;1.67;;
51238;SDS011;38154;47.548;18.828;2022-07-22T02:49:54;5.95;;;1.80;;
51238;SDS011;38154;47.548;18.828;2022-07-22T02:52:20;4.43;;;1.95;;
51238;SDS011;38154;47.548;18.828;2022-07-22T02:54:46;2.22;;;1.90;;
51238;SDS011;38154;47.548;18.828;2022-07-22T02:57:12;4.20;;;2.00;;
51238;SDS011;38154;47.548;18.828;2022-07-22T02:59:38;2.50;;;1.90;;
51238;SDS011;38154;47.548;18.828;2022-07-22T03:02:04;5.55;;;1.83;;
51238;SDS011;38154;47.548;18.828;2022-07-22T03:04:30;4.37;;;2.00;;
51238;SDS011;38154;47.548;18.828;2022-07-22T03:06:55;3.65;;;2.05;;
51238;SDS011;38154;47.548;18.828;2022-07-22T03:09:21;3.17;;;2.05;;
51238;SDS011;38154;47.548;18.828;2022-07-22T03:11:47;2.90;;;1.85;;
51238;SDS011;38154;47.548;18.828;2022-07-22T03:14:13;2.53;;;1.90;;
51238;SDS011;38154;47.548;18.828;2022-07-22T03:16:39;5.12;;;2.62;;
51238;SDS011;38154;47.548;18.828;2022-07-22T03:19:05;2.90;;;1.73;;
51238;SDS011;38154;47.548;18.828;2022-07-22T03:21:31;4.40;;;2.50;;
51238;SDS011;38154;47.548;18.828;2022-07-22T03:23:57;8.15;;;2.40;;
51238;SDS011;38154;47.548;18.828;2022-07-22T03:26:23;5.50;;;2.60;;
51238;SDS011;38154;47.548;18.828;2022-07-22T03:28:49;7.57;;;2.75;;
51238;SDS011;38154;47.548;18.828;2022-07-22T03:31:15;8.40;;;2.70;;
51238;SDS011;38154;47.548;18.828;2022-07-22T03:33:41;4.50;;;2.67;;
51238;SDS011;38154;47.548;18.828;2022-07-22T03:36:07;5.85;;;2.50;;
51238;SDS011;38154;47.548;18.828;2022-07-22T03:38:33;4.72;;;2.12;;
51238;SDS011;38154;47.548;18.828;2022-07-22T03:41:00;7.45;;;2.50;;
51238;SDS011;38154;47.548;18.828;2022-07-22T03:43:26;7.65;;;2.28;;
51238;SDS011;38154;47.548;18.828;2022-07-22T03:45:52;5.20;;;2.83;;
51238;SDS011;38154;47.548;18.828;2022-07-22T03:48:18;4.15;;;2.80;;
51238;SDS011;38154;47.548;18.828;2022-07-22T03:50:44;7.03;;;2.90;;
51238;SDS011;38154;47.548;18.828;2022-07-22T03:53:10;8.02;;;2.70;;
51238;SDS011;38154;47.548;18.828;2022-07-22T03:55:35;11.55;;;2.80;;
51238;SDS011;38154;47.548;18.828;2022-07-22T03:58:02;8.00;;;2.70;;
51238;SDS011;38154;47.548;18.828;2022-07-22T04:00:28;4.50;;;2.65;;
51238;SDS011;38154;47.548;18.828;2022-07-22T04:02:54;8.23;;;2.83;;
51238;SDS011;38154;47.548;18.828;2022-07-22T04:05:19;7.55;;;2.97;;
51238;SDS011;38154;47.548;18.828;2022-07-22T04:07:45;14.48;;;3.10;;
51238;SDS011;38154;47.548;18.828;2022-07-22T04:10:11;5.47;;;3.10;;
51238;SDS011;38154;47.548;18.828;2022-07-22T04:12:39;6.47;;;2.97;;
51238;SDS011;38154;47.548;18.828;2022-07-22T04:15:05;9.68;;;2.58;;
51238;SDS011;38154;47.548;18.828;2022-07-22T04:17:32;11.48;;;3.17;;
51238;SDS011;38154;47.548;18.828;2022-07-22T04:19:59;11.15;;;2.72;;
51238;SDS011;38154;47.548;18.828;2022-07-22T04:22:26;4.95;;;3.05;;
51238;SDS011;38154;47.548;18.828;2022-07-22T04:24:52;3.55;;;2.55;;
51238;SDS011;38154;47.548;18.828;2022-07-22T04:27:18;6.87;;;2.78;;
51238;SDS011;38154;47.548;18.828;2022-07-22T04:29:44;5.10;;;2.85;;
51238;SDS011;38154;47.548;18.828;2022-07-22T04:32:10;5.82;;;3.05;;
51238;SDS011;38154;47.548;18.828;2022-07-22T04:34:36;13.15;;;3.28;;
51238;SDS011;38154;47.548;18.828;2022-07-22T04:37:02;17.25;;;3.15;;
51238;SDS011;38154;47.548;18.828;2022-07-22T04:39:28;13.52;;;3.35;;
51238;SDS011;38154;47.548;18.828;2022-07-22T04:41:53;10.48;;;3.12;;
51238;SDS011;38154;47.548;18.828;2022-07-22T04:44:19;28.12;;;4.70;;
51238;SDS011;38154;47.548;18.828;2022-07-22T04:46:45;17.15;;;3.28;;
51238;SDS011;38154;47.548;18.828;2022-07-22T04:49:11;13.23;;;3.70;;
51238;SDS011;38154;47.548;18.828;2022-07-22T04:51:37;19.00;;;3.60;;
51238;SDS011;38154;47.548;18.828;2022-07-22T04:54:03;12.57;;;2.97;;
51238;SDS011;38154;47.548;18.828;2022-07-22T04:56:29;12.37;;;3.22;;
51238;SDS011;38154;47.548;18.828;2022-07-22T04:58:54;8.40;;;2.90;;
51238;SDS011;38154;47.548;18.828;2022-07-22T05:01:20;14.25;;;2.95;;
51238;SDS011;38154;47.548;18.828;2022-07-22T05:03:46;9.05;;;2.80;;
51238;SDS011;38154;47.548;18.828;2022-07-22T05:06:12;7.00;;;3.03;;
51238;SDS011;38154;47.548;18.828;2022-07-22T05:08:38;4.75;;;2.92;;
51238;SDS011;38154;47.548;18.828;2022-07-22T05:11:04;6.03;;;2.75;;
51238;SDS011;38154;47.548;18.828;2022-07-22T05:13:30;7.12;;;2.90;;
51238;SDS011;38154;47.548;18.828;2022-07-22T05:15:56;8.65;;;2.85;;
51238;SDS011;38154;47.548;18.828;2022-07-22T05:18:21;10.43;;;3.00;;
51238;SDS011;38154;47.548;18.828;2022-07-22T05:20:47;7.18;;;2.97;;
51238;SDS011;38154;47.548;18.828;2022-07-22T05:23:13;49.03;;;5.93;;
51238;SDS011;38154;47.548;18.828;2022-07-22T05:25:39;4.75;;;2.50;;
51238;SDS011;38154;47.548;18.828;2022-07-22T05:28:05;8.32;;;2.97;;
51238;SDS011;38154;47.548;18.828;2022-07-22T05:30:31;18.67;;;3.67;;
51238;SDS011;38154;47.548;18.828;2022-07-22T05:32:57;6.75;;;3.45;;
51238;SDS011;38154;47.548;18.828;2022-07-22T05:35:22;12.37;;;3.45;;
51238;SDS011;38154;47.548;18.828;2022-07-22T05:40:14;9.43;;;2.92;;
51238;SDS011;38154;47.548;18.828;2022-07-22T05:45:06;7.75;;;3.05;;
51238;SDS011;38154;47.548;18.828;2022-07-22T05:47:32;14.13;;;3.10;;
51238;SDS011;38154;47.548;18.828;2022-07-22T05:52:23;10.00;;;3.22;;
51238;SDS011;38154;47.548;18.828;2022-07-22T05:57:15;11.88;;;3.22;;
51238;SDS011;38154;47.548;18.828;2022-07-22T06:02:07;9.48;;;2.97;;
51238;SDS011;38154;47.548;18.828;2022-07-22T06:04:33;11.65;;;4.05;;
51238;SDS011;38154;47.548;18.828;2022-07-22T06:09:24;15.50;;;2.97;;
51238;SDS011;38154;47.548;18.828;2022-07-22T06:11:50;8.30;;;3.25;;
51238;SDS011;38154;47.548;18.828;2022-07-22T06:16:42;8.90;;;4.07;;
51238;SDS011;38154;47.548;18.828;2022-07-22T06:21:33;9.75;;;3.50;;
51238;SDS011;38154;47.548;18.828;2022-07-22T06:23:59;3.92;;;2.87;;
51238;SDS011;38154;47.548;18.828;2022-07-22T06:26:25;11.32;;;3.10;;
51238;SDS011;38154;47.548;18.828;2022-07-22T06:28:51;7.25;;;3.00;;
51238;SDS011;38154;47.548;18.828;2022-07-22T06:31:17;7.62;;;3.33;;
51238;SDS011;38154;47.548;18.828;2022-07-22T06:33:43;7.53;;;2.80;;
51238;SDS011;38154;47.548;18.828;2022-07-22T06:36:09;5.18;;;3.87;;
51238;SDS011;38154;47.548;18.828;2022-07-22T06:38:35;9.43;;;3.37;;
51238;SDS011;38154;47.548;18.828;2022-07-22T06:41:01;9.38;;;3.95;;
51238;SDS011;38154;47.548;18.828;2022-07-22T06:43:27;9.10;;;3.33;;
51238;SDS011;38154;47.548;18.828;2022-07-22T06:45:54;14.25;;;3.83;;
51238;SDS011;38154;47.548;18.828;2022-07-22T06:48:20;14.35;;;4.62;;
51238;SDS011;38154;47.548;18.828;2022-07-22T06:50:46;11.00;;;4.00;;
51238;SDS011;38154;47.548;18.828;2022-07-22T06:53:12;10.75;;;4.32;;
51238;SDS011;38154;47.548;18.828;2022-07-22T06:55:37;12.43;;;3.92;;
51238;SDS011;38154;47.548;18.828;2022-07-22T06:58:03;10.15;;;3.87;;
51238;SDS011;38154;47.548;18.828;2022-07-22T07:00:29;11.35;;;4.20;;
51238;SDS011;38154;47.548;18.828;2022-07-22T07:02:57;5.78;;;3.72;;
51238;SDS011;38154;47.548;18.828;2022-07-22T07:05:24;7.62;;;3.55;;
51238;SDS011;38154;47.548;18.828;2022-07-22T07:07:53;7.30;;;3.72;;
51238;SDS011;38154;47.548;18.828;2022-07-22T07:10:19;14.75;;;3.65;;
51238;SDS011;38154;47.548;18.828;2022-07-22T07:12:44;24.87;;;4.00;;
51238;SDS011;38154;47.548;18.828;2022-07-22T07:15:11;7.37;;;3.40;;
51238;SDS011;38154;47.548;18.828;2022-07-22T07:17:37;5.00;;;3.00;;
51238;SDS011;38154;47.548;18.828;2022-07-22T07:20:04;8.60;;;3.10;;
51238;SDS011;38154;47.548;18.828;2022-07-22T07:22:31;5.72;;;3.30;;
51238;SDS011;38154;47.548;18.828;2022-07-22T07:25:01;13.52;;;3.90;;
51238;SDS011;38154;47.548;18.828;2022-07-22T07:27:30;10.35;;;3.47;;
51238;SDS011;38154;47.548;18.828;2022-07-22T07:29:55;10.45;;;3.97;;
51238;SDS011;38154;47.548;18.828;2022-07-22T07:32:21;8.50;;;3.42;;
51238;SDS011;38154;47.548;18.828;2022-07-22T07:34:47;14.15;;;3.53;;
51238;SDS011;38154;47.548;18.828;2022-07-22T07:37:13;8.30;;;3.05;;
51238;SDS011;38154;47.548;18.828;2022-07-22T07:39:39;4.62;;;3.22;;
51238;SDS011;38154;47.548;18.828;2022-07-22T07:42:05;8.07;;;2.70;;
51238;SDS011;38154;47.548;18.828;2022-07-22T07:44:31;6.35;;;3.20;;
51238;SDS011;38154;47.548;18.828;2022-07-22T07:46:57;9.25;;;2.97;;
51238;SDS011;38154;47.548;18.828;2022-07-22T07:49:22;7.78;;;3.10;;
51238;SDS011;38154;47.548;18.828;2022-07-22T07:51:49;4.50;;;3.10;;
51238;SDS011;38154;47.548;18.828;2022-07-22T07:54:20;6.12;;;3.10;;
51238;SDS011;38154;47.548;18.828;2022-07-22T07:57:03;4.82;;;2.97;;
51238;SDS011;38154;47.548;18.828;2022-07-22T07:59:31;4.40;;;3.28;;
51238;SDS011;38154;47.548;18.828;2022-07-22T08:01:57;3.67;;;2.87;;
51238;SDS011;38154;47.548;18.828;2022-07-22T08:04:23;5.55;;;3.33;;
51238;SDS011;38154;47.548;18.828;2022-07-22T08:06:48;10.50;;;3.05;;
51238;SDS011;38154;47.548;18.828;2022-07-22T08:09:14;3.90;;;2.75;;
51238;SDS011;38154;47.548;18.828;2022-07-22T08:11:40;6.28;;;2.70;;
51238;SDS011;38154;47.548;18.828;2022-07-22T08:14:06;10.57;;;3.30;;
51238;SDS011;38154;47.548;18.828;2022-07-22T08:16:32;6.43;;;3.05;;
51238;SDS011;38154;47.548;18.828;2022-07-22T08:18:58;6.35;;;3.00;;
51238;SDS011;38154;47.548;18.828;2022-07-22T08:21:24;8.77;;;3.03;;
51238;SDS011;38154;47.548;18.828;2022-07-22T08:23:51;5.72;;;2.60;;
51238;SDS011;38154;47.548;18.828;2022-07-22T08:26:18;6.35;;;2.83;;
51238;SDS011;38154;47.548;18.828;2022-07-22T08:28:44;5.60;;;2.58;;
51238;SDS011;38154;47.548;18.828;2022-07-22T08:31:10;10.13;;;3.25;;
51238;SDS011;38154;47.548;18.828;2022-07-22T08:33:36;9.05;;;2.75;;
51238;SDS011;38154;47.548;18.828;2022-07-22T08:36:02;8.05;;;2.50;;
51238;SDS011;38154;47.548;18.828;2022-07-22T08:38:28;12.73;;;2.97;;
51238;SDS011;38154;47.548;18.828;2022-07-22T08:40:54;7.60;;;3.00;;
51238;SDS011;38154;47.548;18.828;2022-07-22T08:43:21;16.98;;;2.95;;
51238;SDS011;38154;47.548;18.828;2022-07-22T08:45:48;8.32;;;2.60;;
51238;SDS011;38154;47.548;18.828;2022-07-22T08:48:14;8.52;;;3.00;;
51238;SDS011;38154;47.548;18.828;2022-07-22T08:50:41;14.60;;;2.97;;
51238;SDS011;38154;47.548;18.828;2022-07-22T08:53:09;7.70;;;2.85;;
51238;SDS011;38154;47.548;18.828;2022-07-22T08:55:46;5.30;;;2.60;;
51238;SDS011;38154;47.548;18.828;2022-07-22T08:58:13;7.10;;;2.55;;
51238;SDS011;38154;47.548;18.828;2022-07-22T09:00:40;4.78;;;2.70;;
51238;SDS011;38154;47.548;18.828;2022-07-22T09:03:22;5.72;;;2.53;;
51238;SDS011;38154;47.548;18.828;2022-07-22T09:05:50;4.32;;;2.53;;
51238;SDS011;38154;47.548;18.828;2022-07-22T09:08:18;7.55;;;2.12;;
51238;SDS011;38154;47.548;18.828;2022-07-22T09:10:44;5.50;;;2.53;;
51238;SDS011;38154;47.548;18.828;2022-07-22T09:13:10;2.42;;;2.12;;
51238;SDS011;38154;47.548;18.828;2022-07-22T09:15:37;11.18;;;2.85;;
51238;SDS011;38154;47.548;18.828;2022-07-22T09:18:06;3.87;;;2.95;;
51238;SDS011;38154;47.548;18.828;2022-07-22T09:20:34;3.67;;;2.35;;
51238;SDS011;38154;47.548;18.828;2022-07-22T09:23:01;10.57;;;2.55;;
51238;SDS011;38154;47.548;18.828;2022-07-22T09:25:34;13.10;;;2.83;;
51238;SDS011;38154;47.548;18.828;2022-07-22T09:30:31;10.13;;;2.37;;
51238;SDS011;38154;47.548;18.828;2022-07-22T09:32:59;6.72;;;2.92;;
51238;SDS011;38154;47.548;18.828;2022-07-22T09:35:25;4.97;;;2.97;;
51238;SDS011;38154;47.548;18.828;2022-07-22T09:37:55;9.30;;;3.45;;
51238;SDS011;38154;47.548;18.828;2022-07-22T09:40:26;6.00;;;3.08;;
51238;SDS011;38154;47.548;18.828;2022-07-22T09:42:56;6.30;;;2.90;;
51238;SDS011;38154;47.548;18.828;2022-07-22T09:45:27;8.00;;;3.05;;
51238;SDS011;38154;47.548;18.828;2022-07-22T09:47:55;7.05;;;3.00;;
51238;SDS011;38154;47.548;18.828;2022-07-22T09:50:27;10.50;;;3.78;;
51238;SDS011;38154;47.548;18.828;2022-07-22T09:52:55;3.92;;;2.58;;
51238;SDS011;38154;47.548;18.828;2022-07-22T09:55:23;6.75;;;2.80;;
51238;SDS011;38154;47.548;18.828;2022-07-22T09:57:51;4.87;;;3.15;;
51238;SDS011;38154;47.548;18.828;2022-07-22T10:00:18;9.93;;;3.62;;
51238;SDS011;38154;47.548;18.828;2022-07-22T10:02:50;11.35;;;3.45;;
51238;SDS011;38154;47.548;18.828;2022-07-22T10:05:25;6.87;;;3.72;;
51238;SDS011;38154;47.548;18.828;2022-07-22T10:07:53;7.32;;;3.20;;
51238;SDS011;38154;47.548;18.828;2022-07-22T10:10:21;13.23;;;3.90;;
51238;SDS011;38154;47.548;18.828;2022-07-22T10:12:52;13.13;;;4.12;;
51238;SDS011;38154;47.548;18.828;2022-07-22T10:15:19;7.22;;;3.62;;
51238;SDS011;38154;47.548;18.828;2022-07-22T10:17:46;5.62;;;3.50;;
51238;SDS011;38154;47.548;18.828;2022-07-22T10:20:20;11.63;;;3.80;;
51238;SDS011;38154;47.548;18.828;2022-07-22T10:25:20;10.40;;;3.40;;
51238;SDS011;38154;47.548;18.828;2022-07-22T10:27:57;9.48;;;4.07;;
51238;SDS011;38154;47.548;18.828;2022-07-22T10:30:29;13.20;;;4.00;;
51238;SDS011;38154;47.548;18.828;2022-07-22T10:35:34;8.73;;;3.62;;
51238;SDS011;38154;47.548;18.828;2022-07-22T10:38:20;9.20;;;3.95;;
51238;SDS011;38154;47.548;18.828;2022-07-22T10:40:57;7.45;;;3.92;;
51238;SDS011;38154;47.548;18.828;2022-07-22T10:43:24;9.88;;;4.12;;
51238;SDS011;38154;47.548;18.828;2022-07-22T10:45:55;8.57;;;3.87;;
51238;SDS011;38154;47.548;18.828;2022-07-22T10:48:43;14.15;;;3.90;;
51238;SDS011;38154;47.548;18.828;2022-07-22T10:51:09;8.52;;;3.95;;
51238;SDS011;38154;47.548;18.828;2022-07-22T10:56:14;11.63;;;4.07;;
51238;SDS011;38154;47.548;18.828;2022-07-22T10:58:41;6.47;;;4.87;;
51238;SDS011;38154;47.548;18.828;2022-07-22T11:01:09;11.15;;;4.10;;
51238;SDS011;38154;47.548;18.828;2022-07-22T11:03:38;6.70;;;4.18;;
51238;SDS011;38154;47.548;18.828;2022-07-22T11:06:24;8.43;;;3.87;;
51238;SDS011;38154;47.548;18.828;2022-07-22T11:08:59;14.87;;;4.55;;
51238;SDS011;38154;47.548;18.828;2022-07-22T11:14:11;11.38;;;4.47;;
51238;SDS011;38154;47.548;18.828;2022-07-22T11:16:38;11.12;;;4.40;;
51238;SDS011;38154;47.548;18.828;2022-07-22T11:19:04;7.43;;;4.10;;
51238;SDS011;38154;47.548;18.828;2022-07-22T11:21:31;7.03;;;5.05;;
51238;SDS011;38154;47.548;18.828;2022-07-22T11:24:01;7.65;;;4.47;;
51238;SDS011;38154;47.548;18.828;2022-07-22T11:26:33;11.82;;;4.65;;
51238;SDS011;38154;47.548;18.828;2022-07-22T11:28:59;7.12;;;3.97;;
51238;SDS011;38154;47.548;18.828;2022-07-22T11:31:26;9.95;;;4.28;;
51238;SDS011;38154;47.548;18.828;2022-07-22T11:33:56;5.72;;;3.72;;
51238;SDS011;38154;47.548;18.828;2022-07-22T11:36:31;10.93;;;4.32;;
51238;SDS011;38154;47.548;18.828;2022-07-22T11:38:58;5.22;;;3.72;;
51238;SDS011;38154;47.548;18.828;2022-07-22T11:41:24;5.85;;;3.42;;
51238;SDS011;38154;47.548;18.828;2022-07-22T11:43:55;9.95;;;3.28;;
51238;SDS011;38154;47.548;18.828;2022-07-22T11:46:20;7.60;;;3.53;;
51238;SDS011;38154;47.548;18.828;2022-07-22T11:48:47;6.43;;;3.97;;
51238;SDS011;38154;47.548;18.828;2022-07-22T11:51:12;10.60;;;4.35;;
51238;SDS011;38154;47.548;18.828;2022-07-22T11:53:39;8.45;;;3.90;;
51238;SDS011;38154;47.548;18.828;2022-07-22T11:56:07;15.45;;;4.93;;
51238;SDS011;38154;47.548;18.828;2022-07-22T11:58:35;13.52;;;5.75;;
51238;SDS011;38154;47.548;18.828;2022-07-22T12:01:03;9.52;;;4.70;;
51238;SDS011;38154;47.548;18.828;2022-07-22T12:03:30;4.28;;;3.42;;
51238;SDS011;38154;47.548;18.828;2022-07-22T12:05:57;13.93;;;4.20;;
51238;SDS011;38154;47.548;18.828;2022-07-22T12:08:23;9.30;;;3.97;;
51238;SDS011;38154;47.548;18.828;2022-07-22T12:10:49;21.12;;;5.03;;
51238;SDS011;38154;47.548;18.828;2022-07-22T12:13:15;72.60;;;12.90;;
51238;SDS011;38154;47.548;18.828;2022-07-22T12:15:40;34.88;;;6.47;;
51238;SDS011;38154;47.548;18.828;2022-07-22T12:18:22;9.05;;;4.53;;
51238;SDS011;38154;47.548;18.828;2022-07-22T12:20:51;8.80;;;4.18;;
51238;SDS011;38154;47.548;18.828;2022-07-22T12:23:17;8.32;;;4.12;;
51238;SDS011;38154;47.548;18.828;2022-07-22T12:25:53;27.42;;;3.97;;
51238;SDS011;38154;47.548;18.828;2022-07-22T12:28:21;3.92;;;3.37;;
51238;SDS011;38154;47.548;18.828;2022-07-22T12:30:48;11.15;;;3.80;;
51238;SDS011;38154;47.548;18.828;2022-07-22T12:33:16;11.20;;;3.40;;
51238;SDS011;38154;47.548;18.828;2022-07-22T12:35:43;7.37;;;3.12;;
51238;SDS011;38154;47.548;18.828;2022-07-22T12:38:22;6.35;;;3.05;;
51238;SDS011;38154;47.548;18.828;2022-07-22T12:40:48;5.87;;;3.30;;
51238;SDS011;38154;47.548;18.828;2022-07-22T12:43:14;6.87;;;3.33;;
51238;SDS011;38154;47.548;18.828;2022-07-22T12:45:40;8.45;;;3.22;;
51238;SDS011;38154;47.548;18.828;2022-07-22T12:48:07;5.05;;;2.87;;
51238;SDS011;38154;47.548;18.828;2022-07-22T12:50:35;9.10;;;3.20;;
51238;SDS011;38154;47.548;18.828;2022-07-22T12:53:09;8.45;;;3.53;;
51238;SDS011;38154;47.548;18.828;2022-07-22T12:58:07;5.15;;;3.80;;
51238;SDS011;38154;47.548;18.828;2022-07-22T13:00:35;5.28;;;3.80;;
51238;SDS011;38154;47.548;18.828;2022-07-22T13:03:02;6.78;;;3.95;;
51238;SDS011;38154;47.548;18.828;2022-07-22T13:05:29;12.68;;;4.18;;
51238;SDS011;38154;47.548;18.828;2022-07-22T13:07:55;4.82;;;3.50;;
51238;SDS011;38154;47.548;18.828;2022-07-22T13:10:22;7.85;;;4.32;;
51238;SDS011;38154;47.548;18.828;2022-07-22T13:12:49;18.33;;;4.68;;
51238;SDS011;38154;47.548;18.828;2022-07-22T13:15:16;14.77;;;4.28;;
51238;SDS011;38154;47.548;18.828;2022-07-22T13:17:42;5.85;;;4.05;;
51238;SDS011;38154;47.548;18.828;2022-07-22T13:20:09;7.07;;;4.00;;
51238;SDS011;38154;47.548;18.828;2022-07-22T13:22:38;6.05;;;3.67;;
51238;SDS011;38154;47.548;18.828;2022-07-22T13:25:04;12.88;;;3.55;;
51238;SDS011;38154;47.548;18.828;2022-07-22T13:27:30;10.90;;;3.45;;
51238;SDS011;38154;47.548;18.828;2022-07-22T13:29:56;6.87;;;4.07;;
51238;SDS011;38154;47.548;18.828;2022-07-22T13:32:22;7.12;;;3.85;;
51238;SDS011;38154;47.548;18.828;2022-07-22T13:34:48;7.28;;;3.92;;
51238;SDS011;38154;47.548;18.828;2022-07-22T13:37:14;6.35;;;3.92;;
51238;SDS011;38154;47.548;18.828;2022-07-22T13:39:40;11.02;;;3.90;;
51238;SDS011;38154;47.548;18.828;2022-07-22T13:42:07;10.30;;;3.87;;
51238;SDS011;38154;47.548;18.828;2022-07-22T13:44:33;9.82;;;4.62;;
51238;SDS011;38154;47.548;18.828;2022-07-22T13:47:00;9.50;;;4.25;;
51238;SDS011;38154;47.548;18.828;2022-07-22T13:49:26;6.82;;;3.70;;
51238;SDS011;38154;47.548;18.828;2022-07-22T13:51:52;9.00;;;3.85;;
51238;SDS011;38154;47.548;18.828;2022-07-22T13:54:19;7.07;;;4.03;;
51238;SDS011;38154;47.548;18.828;2022-07-22T13:56:45;16.17;;;4.12;;
51238;SDS011;38154;47.548;18.828;2022-07-22T13:59:15;8.85;;;4.03;;
51238;SDS011;38154;47.548;18.828;2022-07-22T14:01:42;9.48;;;3.92;;
51238;SDS011;38154;47.548;18.828;2022-07-22T14:04:09;17.30;;;4.43;;
51238;SDS011;38154;47.548;18.828;2022-07-22T14:06:35;6.25;;;4.22;;
51238;SDS011;38154;47.548;18.828;2022-07-22T14:09:01;8.90;;;3.75;;
51238;SDS011;38154;47.548;18.828;2022-07-22T14:11:29;8.70;;;4.35;;
51238;SDS011;38154;47.548;18.828;2022-07-22T14:13:55;6.57;;;4.00;;
51238;SDS011;38154;47.548;18.828;2022-07-22T14:16:21;13.52;;;5.05;;
51238;SDS011;38154;47.548;18.828;2022-07-22T14:19:04;15.77;;;4.50;;
51238;SDS011;38154;47.548;18.828;2022-07-22T14:21:31;13.13;;;4.22;;
51238;SDS011;38154;47.548;18.828;2022-07-22T14:23:58;8.45;;;4.18;;
51238;SDS011;38154;47.548;18.828;2022-07-22T14:26:24;6.60;;;4.10;;
51238;SDS011;38154;47.548;18.828;2022-07-22T14:28:50;12.95;;;3.92;;
51238;SDS011;38154;47.548;18.828;2022-07-22T14:31:16;13.60;;;4.03;;
51238;SDS011;38154;47.548;18.828;2022-07-22T14:33:42;11.45;;;4.00;;
51238;SDS011;38154;47.548;18.828;2022-07-22T14:36:08;10.85;;;3.78;;
51238;SDS011;38154;47.548;18.828;2022-07-22T14:38:34;10.07;;;3.90;;
51238;SDS011;38154;47.548;18.828;2022-07-22T14:41:00;7.00;;;3.95;;
51238;SDS011;38154;47.548;18.828;2022-07-22T14:43:26;7.90;;;3.92;;
51238;SDS011;38154;47.548;18.828;2022-07-22T14:45:52;12.70;;;4.12;;
51238;SDS011;38154;47.548;18.828;2022-07-22T14:48:18;8.57;;;3.50;;
51238;SDS011;38154;47.548;18.828;2022-07-22T14:50:44;4.37;;;3.60;;
51238;SDS011;38154;47.548;18.828;2022-07-22T14:53:10;6.53;;;3.58;;
51238;SDS011;38154;47.548;18.828;2022-07-22T14:55:36;12.85;;;3.85;;
51238;SDS011;38154;47.548;18.828;2022-07-22T14:58:02;13.02;;;3.83;;
51238;SDS011;38154;47.548;18.828;2022-07-22T15:00:27;3.87;;;3.37;;
51238;SDS011;38154;47.548;18.828;2022-07-22T15:02:53;7.85;;;3.75;;
51238;SDS011;38154;47.548;18.828;2022-07-22T15:05:19;9.35;;;3.60;;
51238;SDS011;38154;47.548;18.828;2022-07-22T15:07:45;8.93;;;3.95;;
51238;SDS011;38154;47.548;18.828;2022-07-22T15:10:11;10.27;;;4.05;;
51238;SDS011;38154;47.548;18.828;2022-07-22T15:12:37;9.93;;;3.90;;